Time;durP1;ratioP1;P1;durP2;ratioP2;P2;SDS_P1;SDS_P2;PMS_P1;PMS_P2;Temp;Humidity;BMP_temperature;BMP_pressure;BME280_temperature;BME280_humidity;BME280_pressure;Samples;Min_cycle;Max_cycle;Signal;HPM_P1;HPM_P2
2023/11/15 00:00:11;;;;;;;3.00;2.55;;;;;;;;;;2065329;28;20483;-82
2023/11/15 00:01:30;;;;;;;2.83;2.47;;;;;;;;;;2062417;28;20039;-82
2023/11/15 00:02:50;;;;;;;4.53;2.95;;;;;;;;;;2066849;28;20066;-79
2023/11/15 00:04:09;;;;;;;2.92;2.72;;;;;;;;;;2071921;28;20101;-81
2023/11/15 00:05:28;;;;;;;3.05;2.75;;;;;;;;;;2073337;28;20039;-79
2023/11/15 00:06:47;;;;;;;4.45;3.05;;;;;;;;;;2073298;28;20034;-81
2023/11/15 00:08:06;;;;;;;3.10;2.90;;;;;;;;;;2069006;28;20026;-80
2023/11/15 00:09:25;;;;;;;3.95;2.70;;;;;;;;;;2070155;28;20035;-79
2023/11/15 00:10:44;;;;;;;3.10;2.90;;;;;;;;;;2070536;28;20034;-81
2023/11/15 00:12:04;;;;;;;2.80;2.60;;;;;;;;;;2069658;28;20090;-81
2023/11/15 00:13:23;;;;;;;2.80;2.60;;;;;;;;;;2068615;28;20027;-79
2023/11/15 00:14:42;;;;;;;3.08;2.80;;;;;;;;;;2064898;28;20038;-79
2023/11/15 00:16:02;;;;;;;2.90;2.58;;;;;;;;;;2066641;28;20057;-80
2023/11/15 00:17:21;;;;;;;3.85;2.85;;;;;;;;;;2065587;28;20030;-81
2023/11/15 00:18:40;;;;;;;2.83;2.63;;;;;;;;;;2066575;28;20030;-81
2023/11/15 00:20:03;;;;;;;3.40;3.13;;;;;;;;;;2066267;28;20410;-78
2023/11/15 00:21:22;;;;;;;4.13;3.03;;;;;;;;;;2067376;28;20035;-81
2023/11/15 00:22:41;;;;;;;3.63;3.10;;;;;;;;;;2066753;28;20022;-79
2023/11/15 00:24:00;;;;;;;3.95;3.08;;;;;;;;;;2065657;28;20464;-81
2023/11/15 00:25:20;;;;;;;5.78;3.38;;;;;;;;;;2066689;28;20066;-81
2023/11/15 00:26:39;;;;;;;3.83;3.53;;;;;;;;;;2066093;28;20407;-80
2023/11/15 00:27:58;;;;;;;3.38;3.15;;;;;;;;;;2061468;28;20022;-82
2023/11/15 00:29:17;;;;;;;3.67;3.35;;;;;;;;;;2066414;28;20022;-82
2023/11/15 00:30:37;;;;;;;5.28;3.17;;;;;;;;;;2065444;28;20042;-82
2023/11/15 00:31:56;;;;;;;3.90;3.17;;;;;;;;;;2062049;28;20023;-83
2023/11/15 00:33:14;;;;;;;3.20;2.83;;;;;;;;;;2062565;28;20026;-81
2023/11/15 00:34:34;;;;;;;2.53;2.33;;;;;;;;;;2065266;28;20403;-82
2023/11/15 00:35:52;;;;;;;2.72;2.53;;;;;;;;;;2064343;28;20392;-81
2023/11/15 00:37:12;;;;;;;3.08;2.55;;;;;;;;;;2066939;28;20038;-83
2023/11/15 00:38:31;;;;;;;3.90;2.60;;;;;;;;;;2065062;28;20488;-80
2023/11/15 00:39:50;;;;;;;4.55;2.25;;;;;;;;;;2065091;28;20014;-83
2023/11/15 00:41:09;;;;;;;2.92;2.72;;;;;;;;;;2063596;28;20030;-79
2023/11/15 00:42:28;;;;;;;2.47;2.10;;;;;;;;;;2063631;28;20499;-82
2023/11/15 00:43:47;;;;;;;2.40;2.30;;;;;;;;;;2065395;28;20100;-82
2023/11/15 00:45:08;;;;;;;2.63;2.42;;;;;;;;;;2063418;28;20038;-82
2023/11/15 00:46:27;;;;;;;3.05;2.40;;;;;;;;;;2065514;28;20030;-81
2023/11/15 00:47:47;;;;;;;2.63;2.42;;;;;;;;;;2065802;28;20069;-83
2023/11/15 00:49:06;;;;;;;2.92;2.38;;;;;;;;;;2065919;28;20026;-79
2023/11/15 00:50:25;;;;;;;5.93;2.90;;;;;;;;;;2065979;28;20496;-81
2023/11/15 00:51:44;;;;;;;4.28;2.83;;;;;;;;;;2064335;28;20046;-79
2023/11/15 00:53:04;;;;;;;2.75;2.55;;;;;;;;;;2065778;28;20046;-82
2023/11/15 00:54:24;;;;;;;3.45;2.60;;;;;;;;;;2065454;28;20054;-80
2023/11/15 00:55:43;;;;;;;2.60;2.40;;;;;;;;;;2066004;28;20031;-82
2023/11/15 00:57:02;;;;;;;2.83;2.45;;;;;;;;;;2065995;28;20034;-81
2023/11/15 00:58:22;;;;;;;2.50;2.30;;;;;;;;;;2063767;28;20512;-83
2023/11/15 00:59:45;;;;;;;2.80;2.42;;;;;;;;;;2065605;28;20046;-80
2023/11/15 01:01:10;;;;;;;5.72;3.17;;;;;;;;;;2064331;28;20031;-83
2023/11/15 01:02:32;;;;;;;2.97;2.72;;;;;;;;;;2065757;28;20026;-82
2023/11/15 01:03:58;;;;;;;2.88;2.47;;;;;;;;;;2064530;28;20030;-81
2023/11/15 01:05:18;;;;;;;4.50;3.00;;;;;;;;;;2065307;28;20030;-81
2023/11/15 01:06:37;;;;;;;3.17;2.80;;;;;;;;;;2063271;28;20487;-80
2023/11/15 01:07:59;;;;;;;3.88;2.38;;;;;;;;;;2066997;28;20074;-81
2023/11/15 01:09:18;;;;;;;3.90;2.95;;;;;;;;;;2070681;28;20053;-81
2023/11/15 01:10:37;;;;;;;5.20;2.70;;;;;;;;;;2065129;28;20026;-83
2023/11/15 01:11:56;;;;;;;2.92;2.60;;;;;;;;;;2060756;28;20447;-81
2023/11/15 01:13:16;;;;;;;2.83;2.63;;;;;;;;;;2067787;28;20022;-82
2023/11/15 01:14:35;;;;;;;4.70;2.83;;;;;;;;;;2063093;28;20038;-81
2023/11/15 01:15:54;;;;;;;5.03;2.45;;;;;;;;;;2065596;28;20026;-82
2023/11/15 01:17:14;;;;;;;3.15;2.90;;;;;;;;;;2063761;28;20031;-81
2023/11/15 01:18:36;;;;;;;2.72;2.53;;;;;;;;;;2063141;28;20050;-78
2023/11/15 01:19:55;;;;;;;4.15;2.78;;;;;;;;;;2063051;28;20034;-83
2023/11/15 01:21:14;;;;;;;4.95;2.60;;;;;;;;;;2065328;28;20046;-81
2023/11/15 01:22:33;;;;;;;2.53;2.33;;;;;;;;;;2059509;28;20109;-81
2023/11/15 01:23:53;;;;;;;4.93;2.25;;;;;;;;;;2062474;28;20026;-82
2023/11/15 01:25:13;;;;;;;4.43;2.22;;;;;;;;;;2064151;28;20026;-82
2023/11/15 01:26:32;;;;;;;4.22;2.33;;;;;;;;;;2065603;28;20026;-82
2023/11/15 01:27:51;;;;;;;3.35;2.78;;;;;;;;;;2063296;28;20125;-81
2023/11/15 01:29:10;;;;;;;2.72;2.53;;;;;;;;;;2062267;28;20019;-82
2023/11/15 01:30:29;;;;;;;3.20;2.40;;;;;;;;;;2062382;28;20026;-82
2023/11/15 01:31:48;;;;;;;2.60;2.40;;;;;;;;;;2065174;28;20034;-81
2023/11/15 01:33:07;;;;;;;3.72;2.33;;;;;;;;;;2061254;28;20018;-82
2023/11/15 01:34:26;;;;;;;4.10;2.30;;;;;;;;;;2064447;28;20109;-79
2023/11/15 01:35:45;;;;;;;4.15;2.53;;;;;;;;;;2063696;28;20034;-82
2023/11/15 01:37:04;;;;;;;4.32;2.67;;;;;;;;;;2071109;28;20025;-82
2023/11/15 01:38:23;;;;;;;2.45;2.33;;;;;;;;;;2066009;28;20027;-79
2023/11/15 01:39:42;;;;;;;5.55;2.80;;;;;;;;;;2066532;28;20038;-82
2023/11/15 01:41:01;;;;;;;2.95;2.72;;;;;;;;;;2059741;28;20438;-81
2023/11/15 01:42:20;;;;;;;2.60;2.40;;;;;;;;;;2065596;28;20018;-83
2023/11/15 01:43:59;;;;;;;3.03;2.63;;;;;;;;;;2117016;27;20407;-67
2023/11/15 01:45:18;;;;;;;4.25;3.10;;;;;;;;;;2118085;27;20071;-67
2023/11/15 01:46:37;;;;;;;4.20;2.70;;;;;;;;;;2119064;27;20483;-67
2023/11/15 01:47:57;;;;;;;4.78;2.50;;;;;;;;;;2116696;27;20515;-67
2023/11/15 01:49:16;;;;;;;3.30;2.28;;;;;;;;;;2114254;27;20035;-67
2023/11/15 01:50:35;;;;;;;3.13;2.60;;;;;;;;;;2117457;27;20487;-67
2023/11/15 01:51:54;;;;;;;2.80;2.60;;;;;;;;;;2117011;27;20063;-67
2023/11/15 01:53:14;;;;;;;3.92;2.58;;;;;;;;;;2117790;27;20461;-67
2023/11/15 01:54:33;;;;;;;4.25;2.67;;;;;;;;;;2116720;27;20479;-67
2023/11/15 01:55:53;;;;;;;3.63;2.60;;;;;;;;;;2120221;27;20367;-67
2023/11/15 01:57:12;;;;;;;5.10;3.05;;;;;;;;;;2119176;27;20110;-66
2023/11/15 01:58:31;;;;;;;2.55;2.35;;;;;;;;;;2118233;27;20039;-67
2023/11/15 01:59:51;;;;;;;2.75;2.55;;;;;;;;;;2117790;27;20028;-66
2023/11/15 02:01:10;;;;;;;3.65;2.65;;;;;;;;;;2116399;27;20023;-67
2023/11/15 02:02:30;;;;;;;4.80;2.83;;;;;;;;;;2118729;27;20122;-67
2023/11/15 02:03:49;;;;;;;6.30;2.85;;;;;;;;;;2117090;27;20437;-67
2023/11/15 02:05:09;;;;;;;3.58;2.35;;;;;;;;;;2116806;27;20032;-67
2023/11/15 02:06:30;;;;;;;5.43;2.58;;;;;;;;;;2118164;27;20028;-67
2023/11/15 02:07:49;;;;;;;3.53;2.85;;;;;;;;;;2118696;27;20031;-67
2023/11/15 02:09:10;;;;;;;3.30;2.80;;;;;;;;;;2118393;27;20020;-67
2023/11/15 02:10:29;;;;;;;4.18;2.60;;;;;;;;;;2116546;27;20023;-67
2023/11/15 02:11:48;;;;;;;4.15;2.70;;;;;;;;;;2114650;27;20027;-67
2023/11/15 02:13:23;;;;;;;3.85;2.75;;;;;;;;;;2116206;28;20027;-67
2023/11/15 02:14:42;;;;;;;3.25;2.97;;;;;;;;;;2114335;28;20031;-67
2023/11/15 02:16:01;;;;;;;3.67;2.92;;;;;;;;;;2110675;27;20028;-67
2023/11/15 02:17:22;;;;;;;3.30;3.05;;;;;;;;;;2114391;28;20024;-66
2023/11/15 02:18:42;;;;;;;4.90;3.28;;;;;;;;;;2114624;28;20024;-66
2023/11/15 02:20:05;;;;;;;6.50;3.00;;;;;;;;;;2111923;27;20403;-66
2023/11/15 02:21:24;;;;;;;5.47;3.05;;;;;;;;;;2106165;28;20598;-66
2023/11/15 02:22:50;;;;;;;3.97;2.72;;;;;;;;;;2113973;28;20015;-66
2023/11/15 02:24:10;;;;;;;4.45;2.63;;;;;;;;;;2114317;28;20036;-66
2023/11/15 02:25:32;;;;;;;3.80;3.50;;;;;;;;;;2114962;28;20031;-66
2023/11/15 02:26:51;;;;;;;3.53;3.22;;;;;;;;;;2114186;28;20024;-66
2023/11/15 02:28:10;;;;;;;3.13;2.85;;;;;;;;;;2113291;28;20099;-66
2023/11/15 02:29:29;;;;;;;4.88;3.30;;;;;;;;;;2111368;28;20028;-66
2023/11/15 02:30:48;;;;;;;3.65;3.20;;;;;;;;;;2113413;28;20015;-67
2023/11/15 02:32:09;;;;;;;3.33;2.97;;;;;;;;;;2115200;28;20483;-66
2023/11/15 02:33:28;;;;;;;5.75;3.67;;;;;;;;;;2113158;28;20102;-66
2023/11/15 02:34:47;;;;;;;3.83;3.53;;;;;;;;;;2111962;28;20115;-66
2023/11/15 02:36:06;;;;;;;3.65;3.35;;;;;;;;;;2112764;28;20016;-66
2023/11/15 02:37:26;;;;;;;3.92;3.40;;;;;;;;;;2112780;28;20107;-66
2023/11/15 02:38:45;;;;;;;8.68;3.70;;;;;;;;;;2113191;27;20427;-66
2023/11/15 02:40:09;;;;;;;4.07;3.67;;;;;;;;;;2114374;28;20028;-66
2023/11/15 02:41:28;;;;;;;6.28;4.28;;;;;;;;;;2113670;28;20023;-66
2023/11/15 02:42:47;;;;;;;5.25;3.60;;;;;;;;;;2115983;27;20055;-66
2023/11/15 02:44:06;;;;;;;5.15;3.53;;;;;;;;;;2115640;28;20035;-66
2023/11/15 02:45:26;;;;;;;6.90;3.70;;;;;;;;;;2112534;28;20503;-66
2023/11/15 02:46:45;;;;;;;4.47;3.33;;;;;;;;;;2114068;28;20035;-66
2023/11/15 02:48:07;;;;;;;4.22;3.65;;;;;;;;;;2115355;28;20024;-66
2023/11/15 02:49:27;;;;;;;3.90;3.50;;;;;;;;;;2115486;28;20027;-66
2023/11/15 02:50:46;;;;;;;4.22;3.58;;;;;;;;;;2113038;28;20085;-69
2023/11/15 02:52:05;;;;;;;7.57;3.88;;;;;;;;;;2113979;28;20499;-66
2023/11/15 02:53:24;;;;;;;4.85;3.60;;;;;;;;;;2114981;27;20093;-66
2023/11/15 02:54:43;;;;;;;3.65;3.15;;;;;;;;;;2110746;28;20039;-66
2023/11/15 02:56:03;;;;;;;4.22;3.25;;;;;;;;;;2109647;28;20020;-66
2023/11/15 02:57:22;;;;;;;5.70;3.53;;;;;;;;;;2105303;28;20061;-66
2023/11/15 02:58:41;;;;;;;5.35;3.75;;;;;;;;;;2105571;28;20036;-66
2023/11/15 03:00:00;;;;;;;3.80;3.10;;;;;;;;;;2108293;28;20166;-66
2023/11/15 03:01:20;;;;;;;4.25;3.58;;;;;;;;;;2108609;28;20046;-66
2023/11/15 03:02:39;;;;;;;5.35;3.67;;;;;;;;;;2106897;28;20564;-66
2023/11/15 03:03:58;;;;;;;4.57;3.80;;;;;;;;;;2107969;28;20067;-66
2023/11/15 03:05:21;;;;;;;4.60;3.20;;;;;;;;;;2113150;27;20061;-66
2023/11/15 03:06:39;;;;;;;4.57;3.70;;;;;;;;;;2106544;28;20025;-65
2023/11/15 03:07:59;;;;;;;5.15;3.40;;;;;;;;;;2109353;28;20110;-65
2023/11/15 03:09:18;;;;;;;4.80;3.58;;;;;;;;;;2106060;28;20036;-66
2023/11/15 03:10:37;;;;;;;5.03;3.30;;;;;;;;;;2107197;28;20035;-66
2023/11/15 03:11:56;;;;;;;4.10;3.63;;;;;;;;;;2107342;28;20027;-66
2023/11/15 03:13:15;;;;;;;4.20;3.80;;;;;;;;;;2109299;28;20598;-66
2023/11/15 03:14:34;;;;;;;5.65;3.67;;;;;;;;;;2108100;28;20032;-66
2023/11/15 03:15:54;;;;;;;3.92;3.63;;;;;;;;;;2105264;28;20481;-66
2023/11/15 03:17:14;;;;;;;5.22;3.83;;;;;;;;;;2108782;28;20060;-66
2023/11/15 03:18:33;;;;;;;9.55;4.20;;;;;;;;;;2110292;28;20478;-66
2023/11/15 03:19:52;;;;;;;4.38;3.65;;;;;;;;;;2105043;28;20028;-66
2023/11/15 03:21:11;;;;;;;5.45;4.22;;;;;;;;;;2108952;28;20020;-67
2023/11/15 03:22:30;;;;;;;4.65;3.53;;;;;;;;;;2107340;28;20510;-66
2023/11/15 03:23:49;;;;;;;7.00;3.92;;;;;;;;;;2108456;28;20119;-66
2023/11/15 03:25:08;;;;;;;4.97;3.65;;;;;;;;;;2107702;28;20019;-66
2023/11/15 03:26:27;;;;;;;8.63;3.92;;;;;;;;;;2102117;28;20027;-66
2023/11/15 03:27:46;;;;;;;4.68;4.05;;;;;;;;;;2104604;28;20441;-66
2023/11/15 03:29:05;;;;;;;8.23;4.20;;;;;;;;;;2106266;28;20044;-66
2023/11/15 03:30:24;;;;;;;5.40;3.67;;;;;;;;;;2107256;28;20539;-66
2023/11/15 03:31:43;;;;;;;5.30;3.83;;;;;;;;;;2102859;28;20033;-66
2023/11/15 03:33:02;;;;;;;4.30;3.90;;;;;;;;;;2092882;28;20028;-66
2023/11/15 03:34:21;;;;;;;4.22;3.83;;;;;;;;;;2105141;28;20028;-65
2023/11/15 03:35:40;;;;;;;4.80;4.40;;;;;;;;;;2107901;28;20488;-66
2023/11/15 03:36:59;;;;;;;8.02;4.18;;;;;;;;;;2107709;28;20041;-66
2023/11/15 03:38:18;;;;;;;4.22;3.75;;;;;;;;;;2107609;28;20032;-66
2023/11/15 03:39:40;;;;;;;4.93;4.25;;;;;;;;;;2107732;28;20492;-66
2023/11/15 03:40:59;;;;;;;5.03;3.67;;;;;;;;;;2108949;28;20056;-66
2023/11/15 03:42:18;;;;;;;4.18;3.78;;;;;;;;;;2107397;28;20082;-66
2023/11/15 03:43:40;;;;;;;5.10;4.60;;;;;;;;;;2107789;28;20048;-66
2023/11/15 03:44:59;;;;;;;5.20;4.30;;;;;;;;;;2108013;28;20032;-66
2023/11/15 03:46:18;;;;;;;9.05;4.93;;;;;;;;;;2106653;28;20100;-66
2023/11/15 03:47:37;;;;;;;5.90;4.38;;;;;;;;;;2109287;28;21137;-66
2023/11/15 03:48:56;;;;;;;5.43;4.07;;;;;;;;;;2109042;28;20019;-66
2023/11/15 03:50:16;;;;;;;5.57;4.18;;;;;;;;;;2105180;28;20146;-66
2023/11/15 03:51:35;;;;;;;5.97;4.10;;;;;;;;;;2107735;28;20507;-66
2023/11/15 03:52:54;;;;;;;9.02;4.78;;;;;;;;;;2105781;28;20024;-66
2023/11/15 03:54:13;;;;;;;4.93;4.53;;;;;;;;;;2109164;28;20451;-66
2023/11/15 03:55:32;;;;;;;5.50;5.00;;;;;;;;;;2107832;28;20111;-66
2023/11/15 03:56:51;;;;;;;5.47;5.07;;;;;;;;;;2107726;28;20468;-66
2023/11/15 03:58:10;;;;;;;6.90;4.63;;;;;;;;;;2105916;28;20450;-66
2023/11/15 03:59:29;;;;;;;4.78;3.95;;;;;;;;;;2104644;28;20039;-66
2023/11/15 04:00:48;;;;;;;5.47;4.25;;;;;;;;;;2108225;28;20484;-66
2023/11/15 04:02:07;;;;;;;4.65;4.25;;;;;;;;;;2107547;28;20032;-68
2023/11/15 04:03:26;;;;;;;4.75;4.20;;;;;;;;;;2107373;28;20503;-66
2023/11/15 04:04:46;;;;;;;5.13;4.15;;;;;;;;;;2108124;28;20087;-66
2023/11/15 04:06:05;;;;;;;4.50;4.20;;;;;;;;;;2107911;28;20157;-67
2023/11/15 04:07:26;;;;;;;5.55;4.20;;;;;;;;;;2105182;28;20028;-66
2023/11/15 04:08:45;;;;;;;6.57;4.30;;;;;;;;;;2108472;28;20511;-66
2023/11/15 04:10:04;;;;;;;5.78;4.20;;;;;;;;;;2106667;28;20024;-66
2023/11/15 04:11:23;;;;;;;6.07;4.30;;;;;;;;;;2105833;28;20055;-65
2023/11/15 04:12:42;;;;;;;7.43;4.57;;;;;;;;;;2107677;28;20063;-66
2023/11/15 04:14:01;;;;;;;7.25;5.05;;;;;;;;;;2108254;28;20024;-66
2023/11/15 04:15:22;;;;;;;4.72;4.32;;;;;;;;;;2106127;28;20377;-66
2023/11/15 04:16:41;;;;;;;5.75;4.90;;;;;;;;;;2105746;28;20032;-66
2023/11/15 04:17:59;;;;;;;5.72;4.55;;;;;;;;;;2103374;28;20032;-66
2023/11/15 04:19:22;;;;;;;5.05;4.63;;;;;;;;;;2109230;28;20114;-66
2023/11/15 04:20:41;;;;;;;7.82;5.10;;;;;;;;;;2108040;28;20024;-66
2023/11/15 04:22:00;;;;;;;5.38;4.57;;;;;;;;;;2103970;28;20031;-67
2023/11/15 04:23:19;;;;;;;6.53;5.07;;;;;;;;;;2107905;28;20031;-67
2023/11/15 04:24:38;;;;;;;5.13;4.63;;;;;;;;;;2104983;28;20024;-67
2023/11/15 04:25:58;;;;;;;7.82;4.82;;;;;;;;;;2107352;28;20479;-67
2023/11/15 04:27:20;;;;;;;8.15;4.68;;;;;;;;;;2108409;28;20063;-66
2023/11/15 04:28:39;;;;;;;5.55;5.05;;;;;;;;;;2105882;28;20020;-66
2023/11/15 04:29:58;;;;;;;5.13;4.60;;;;;;;;;;2104043;28;20475;-67
2023/11/15 04:31:18;;;;;;;4.80;4.47;;;;;;;;;;2106651;28;20028;-66
2023/11/15 04:32:39;;;;;;;6.95;4.72;;;;;;;;;;2105555;28;20102;-71
2023/11/15 04:33:59;;;;;;;6.53;4.80;;;;;;;;;;2105553;28;20531;-66
2023/11/15 04:35:18;;;;;;;7.80;4.50;;;;;;;;;;2106800;28;20036;-66
2023/11/15 04:36:39;;;;;;;4.90;4.50;;;;;;;;;;2106579;28;20452;-67
2023/11/15 04:37:58;;;;;;;5.78;4.93;;;;;;;;;;2102339;28;20032;-67
2023/11/15 04:39:18;;;;;;;5.32;4.82;;;;;;;;;;2107661;28;20480;-67
2023/11/15 04:40:37;;;;;;;4.63;4.22;;;;;;;;;;2106071;28;20043;-67
2023/11/15 04:41:56;;;;;;;4.90;4.50;;;;;;;;;;2107901;28;20479;-66
2023/11/15 04:43:16;;;;;;;7.05;4.82;;;;;;;;;;2108530;28;20036;-66
2023/11/15 04:44:35;;;;;;;4.68;4.28;;;;;;;;;;2106432;28;20032;-67
2023/11/15 04:45:54;;;;;;;4.63;4.10;;;;;;;;;;2108475;28;20098;-66
2023/11/15 04:47:13;;;;;;;7.60;4.50;;;;;;;;;;2108719;28;20028;-66
2023/11/15 04:48:32;;;;;;;4.63;4.22;;;;;;;;;;2107559;28;20032;-67
2023/11/15 04:49:51;;;;;;;7.43;4.45;;;;;;;;;;2114549;27;20492;-67
2023/11/15 04:51:10;;;;;;;4.80;4.38;;;;;;;;;;2107057;28;20119;-67
2023/11/15 04:52:29;;;;;;;5.43;4.38;;;;;;;;;;2107919;28;20487;-67
2023/11/15 04:53:48;;;;;;;5.38;4.95;;;;;;;;;;2108523;28;20024;-67
2023/11/15 04:55:07;;;;;;;4.50;4.10;;;;;;;;;;2105972;28;20500;-67
2023/11/15 04:56:26;;;;;;;4.88;4.47;;;;;;;;;;2106165;28;20031;-67
2023/11/15 04:57:46;;;;;;;5.63;4.53;;;;;;;;;;2106446;28;20024;-67
2023/11/15 04:59:05;;;;;;;4.45;4.15;;;;;;;;;;2107833;28;20036;-67
2023/11/15 05:00:24;;;;;;;5.43;3.92;;;;;;;;;;2109703;28;20036;-67
2023/11/15 05:01:45;;;;;;;5.22;4.72;;;;;;;;;;2107787;28;20476;-67
2023/11/15 05:03:04;;;;;;;6.97;4.43;;;;;;;;;;2106419;28;20044;-67
2023/11/15 05:04:23;;;;;;;4.72;4.32;;;;;;;;;;2106395;28;20024;-67
2023/11/15 05:05:42;;;;;;;5.45;4.00;;;;;;;;;;2107974;28;20028;-67
2023/11/15 05:07:01;;;;;;;4.80;4.30;;;;;;;;;;2109460;28;20024;-67
2023/11/15 05:08:20;;;;;;;5.43;4.93;;;;;;;;;;2104173;28;20028;-67
2023/11/15 05:09:40;;;;;;;5.38;4.88;;;;;;;;;;2108093;28;20028;-67
2023/11/15 05:10:59;;;;;;;6.55;4.07;;;;;;;;;;2106794;28;20035;-67
2023/11/15 05:12:18;;;;;;;4.43;4.03;;;;;;;;;;2108594;28;20023;-67
2023/11/15 05:13:37;;;;;;;4.43;4.13;;;;;;;;;;2106835;28;20024;-66
2023/11/15 05:14:56;;;;;;;4.50;4.15;;;;;;;;;;2107555;28;20035;-67
2023/11/15 05:16:15;;;;;;;12.23;4.88;;;;;;;;;;2105930;28;20032;-67
2023/11/15 05:17:34;;;;;;;9.77;4.63;;;;;;;;;;2105957;28;20515;-67
2023/11/15 05:18:53;;;;;;;4.88;4.25;;;;;;;;;;2107228;28;20714;-67
2023/11/15 05:20:12;;;;;;;7.13;4.40;;;;;;;;;;2106470;28;20075;-67
2023/11/15 05:21:31;;;;;;;4.60;4.18;;;;;;;;;;2104928;28;20501;-67
2023/11/15 05:22:56;;;;;;;5.00;4.60;;;;;;;;;;2106583;28;20408;-67
2023/11/15 05:24:15;;;;;;;5.25;4.65;;;;;;;;;;2105996;28;20036;-67
2023/11/15 05:25:34;;;;;;;4.97;4.25;;;;;;;;;;2105530;28;20435;-67
2023/11/15 05:26:54;;;;;;;4.88;4.47;;;;;;;;;;2108682;28;20016;-67
2023/11/15 05:28:14;;;;;;;4.80;4.40;;;;;;;;;;2105804;28;20681;-67
2023/11/15 05:29:33;;;;;;;7.45;4.78;;;;;;;;;;2104299;28;20024;-66
2023/11/15 05:30:52;;;;;;;4.53;4.07;;;;;;;;;;2105792;28;20028;-67
2023/11/15 05:32:11;;;;;;;4.53;4.13;;;;;;;;;;2106546;28;20024;-67
2023/11/15 05:33:30;;;;;;;4.82;4.43;;;;;;;;;;2106125;28;20027;-67
2023/11/15 05:34:49;;;;;;;5.72;4.10;;;;;;;;;;2104433;28;20063;-67
2023/11/15 05:36:08;;;;;;;5.00;4.53;;;;;;;;;;2105407;28;20047;-67
2023/11/15 05:37:27;;;;;;;4.80;4.40;;;;;;;;;;2105057;28;20024;-67
2023/11/15 05:38:46;;;;;;;4.90;4.32;;;;;;;;;;2105653;28;20111;-67
2023/11/15 05:40:06;;;;;;;4.88;4.45;;;;;;;;;;2103652;28;20032;-67
2023/11/15 05:41:25;;;;;;;5.53;5.05;;;;;;;;;;2105945;28;20860;-67
2023/11/15 05:42:44;;;;;;;5.55;4.40;;;;;;;;;;2102525;28;20115;-67
2023/11/15 05:44:03;;;;;;;5.97;4.25;;;;;;;;;;2104527;28;20130;-68
2023/11/15 05:45:25;;;;;;;6.30;4.90;;;;;;;;;;2105731;28;20020;-67
2023/11/15 05:46:44;;;;;;;5.53;4.80;;;;;;;;;;2103492;28;20384;-69
2023/11/15 05:48:03;;;;;;;6.55;4.63;;;;;;;;;;2104978;28;20028;-67
2023/11/15 05:49:22;;;;;;;6.82;4.97;;;;;;;;;;2106948;28;20483;-67
2023/11/15 05:50:41;;;;;;;4.88;4.32;;;;;;;;;;2109062;28;20031;-67
2023/11/15 05:52:02;;;;;;;8.10;4.50;;;;;;;;;;2106292;28;20019;-69
2023/11/15 05:53:21;;;;;;;7.03;4.47;;;;;;;;;;2106323;28;20486;-67
2023/11/15 05:54:42;;;;;;;7.30;4.43;;;;;;;;;;2121054;27;20110;-67
2023/11/15 05:56:01;;;;;;;5.45;4.85;;;;;;;;;;2112196;27;20023;-67
2023/11/15 05:57:20;;;;;;;5.18;4.68;;;;;;;;;;2104959;28;20060;-67
2023/11/15 05:58:41;;;;;;;5.07;4.63;;;;;;;;;;2106144;28;20032;-67
2023/11/15 06:00:03;;;;;;;5.00;4.57;;;;;;;;;;2105259;28;20028;-67
2023/11/15 06:01:24;;;;;;;7.45;5.05;;;;;;;;;;2105555;28;20019;-67
2023/11/15 06:02:42;;;;;;;4.78;4.38;;;;;;;;;;2105803;28;20500;-67
2023/11/15 06:04:01;;;;;;;5.20;4.78;;;;;;;;;;2105488;28;20043;-67
2023/11/15 06:05:21;;;;;;;6.07;4.05;;;;;;;;;;2103735;28;20121;-67
2023/11/15 06:06:40;;;;;;;5.63;4.32;;;;;;;;;;2103660;28;20028;-67
2023/11/15 06:07:59;;;;;;;4.97;4.55;;;;;;;;;;2107195;28;20028;-67
2023/11/15 06:09:18;;;;;;;6.50;4.85;;;;;;;;;;2104798;28;20549;-67
2023/11/15 06:10:37;;;;;;;5.15;4.63;;;;;;;;;;2106242;28;20680;-67
2023/11/15 06:11:56;;;;;;;5.82;4.78;;;;;;;;;;2105741;28;20023;-67
2023/11/15 06:13:18;;;;;;;4.80;4.40;;;;;;;;;;2103311;28;20024;-67
2023/11/15 06:14:37;;;;;;;5.82;4.45;;;;;;;;;;2104425;28;20032;-67
2023/11/15 06:15:56;;;;;;;5.80;4.80;;;;;;;;;;2102917;28;20077;-67
2023/11/15 06:17:16;;;;;;;5.43;4.93;;;;;;;;;;2098351;28;20032;-67
2023/11/15 06:18:36;;;;;;;4.35;4.05;;;;;;;;;;2104356;28;20048;-67
2023/11/15 06:19:57;;;;;;;4.55;4.15;;;;;;;;;;2100973;28;20061;-67
2023/11/15 06:21:15;;;;;;;6.30;4.80;;;;;;;;;;2104208;28;20028;-67
2023/11/15 06:22:34;;;;;;;10.68;4.88;;;;;;;;;;2104729;28;20021;-67
2023/11/15 06:23:54;;;;;;;7.78;5.15;;;;;;;;;;2103705;28;20016;-67
2023/11/15 06:25:18;;;;;;;5.22;4.72;;;;;;;;;;2105063;28;20477;-67
2023/11/15 06:26:37;;;;;;;5.72;5.20;;;;;;;;;;2101757;28;20036;-67
2023/11/15 06:27:56;;;;;;;5.35;4.53;;;;;;;;;;2097611;28;20036;-67
2023/11/15 06:29:17;;;;;;;5.70;4.82;;;;;;;;;;2102623;28;20154;-67
2023/11/15 06:30:36;;;;;;;6.20;5.43;;;;;;;;;;2107643;28;20025;-67
2023/11/15 06:31:55;;;;;;;5.03;4.53;;;;;;;;;;2105476;28;20059;-67
2023/11/15 06:33:15;;;;;;;5.32;4.82;;;;;;;;;;2108667;28;20028;-67
2023/11/15 06:34:35;;;;;;;5.50;4.97;;;;;;;;;;2124176;27;20495;-67
2023/11/15 06:35:54;;;;;;;6.45;5.20;;;;;;;;;;2112058;27;20032;-67
2023/11/15 06:37:13;;;;;;;6.05;5.55;;;;;;;;;;2110474;28;20032;-67
2023/11/15 06:38:34;;;;;;;5.80;5.20;;;;;;;;;;2106786;28;20032;-67
2023/11/15 06:39:53;;;;;;;6.82;5.40;;;;;;;;;;2109947;28;20029;-67
2023/11/15 06:41:12;;;;;;;8.80;5.45;;;;;;;;;;2103762;28;20114;-67
2023/11/15 06:42:30;;;;;;;7.28;5.60;;;;;;;;;;2106682;28;20024;-67
2023/11/15 06:43:51;;;;;;;6.47;5.97;;;;;;;;;;2107336;28;20048;-67
2023/11/15 06:45:10;;;;;;;7.07;6.05;;;;;;;;;;2106714;28;20028;-67
2023/11/15 06:46:29;;;;;;;6.25;5.75;;;;;;;;;;2105306;28;21090;-67
2023/11/15 06:47:51;;;;;;;6.35;5.75;;;;;;;;;;2101574;28;20020;-67
2023/11/15 06:49:11;;;;;;;6.47;5.88;;;;;;;;;;2106508;28;20020;-67
2023/11/15 06:50:30;;;;;;;16.30;7.03;;;;;;;;;;2108030;28;20036;-67
2023/11/15 06:51:49;;;;;;;7.93;7.03;;;;;;;;;;2104460;28;20027;-67
2023/11/15 06:53:08;;;;;;;6.72;6.03;;;;;;;;;;2105290;28;20024;-67
2023/11/15 06:54:28;;;;;;;12.15;6.88;;;;;;;;;;2100948;28;20028;-67
2023/11/15 06:55:50;;;;;;;9.40;7.07;;;;;;;;;;2105884;28;20110;-67
2023/11/15 06:57:10;;;;;;;10.10;7.90;;;;;;;;;;2103097;28;20111;-67
2023/11/15 06:58:29;;;;;;;9.50;7.30;;;;;;;;;;2103177;28;20028;-67
2023/11/15 06:59:48;;;;;;;8.70;6.45;;;;;;;;;;2109683;28;20039;-67
2023/11/15 07:01:07;;;;;;;8.70;6.90;;;;;;;;;;2108719;28;20020;-67
2023/11/15 07:02:26;;;;;;;7.55;6.50;;;;;;;;;;2109017;28;20036;-67
2023/11/15 07:03:45;;;;;;;7.47;6.68;;;;;;;;;;2109665;28;20051;-67
2023/11/15 07:05:05;;;;;;;9.75;8.00;;;;;;;;;;2108881;28;20027;-68
2023/11/15 07:06:27;;;;;;;9.50;7.22;;;;;;;;;;2108385;28;20102;-67
2023/11/15 07:07:46;;;;;;;10.18;7.43;;;;;;;;;;2109855;28;20365;-67
2023/11/15 07:09:05;;;;;;;9.27;7.10;;;;;;;;;;2109591;28;20028;-67
2023/11/15 07:10:24;;;;;;;11.52;7.80;;;;;;;;;;2109007;28;20027;-67
2023/11/15 07:11:44;;;;;;;9.93;7.00;;;;;;;;;;2108699;28;20472;-67
2023/11/15 07:13:06;;;;;;;10.35;7.03;;;;;;;;;;2109921;28;20027;-67
2023/11/15 07:14:26;;;;;;;9.30;6.88;;;;;;;;;;2108411;28;20458;-67
2023/11/15 07:15:45;;;;;;;9.35;7.30;;;;;;;;;;2107636;28;20289;-67
2023/11/15 07:17:04;;;;;;;10.35;7.15;;;;;;;;;;2107529;28;20036;-67
2023/11/15 07:18:23;;;;;;;11.55;7.40;;;;;;;;;;2108479;28;20032;-67
2023/11/15 07:19:42;;;;;;;10.60;7.90;;;;;;;;;;2110132;28;20036;-67
2023/11/15 07:21:01;;;;;;;7.63;6.82;;;;;;;;;;2107601;28;20020;-66
2023/11/15 07:22:20;;;;;;;11.10;7.95;;;;;;;;;;2106628;28;20035;-67
2023/11/15 07:23:42;;;;;;;21.27;8.27;;;;;;;;;;2109357;28;20121;-67
2023/11/15 07:25:02;;;;;;;10.43;7.85;;;;;;;;;;2111122;28;20027;-67
2023/11/15 07:26:21;;;;;;;10.05;7.65;;;;;;;;;;2123179;27;20111;-66
2023/11/15 07:27:40;;;;;;;9.43;7.88;;;;;;;;;;2109596;27;20056;-66
2023/11/15 07:29:00;;;;;;;11.27;6.78;;;;;;;;;;2109211;28;20476;-66
2023/11/15 07:30:21;;;;;;;7.30;6.70;;;;;;;;;;2108508;28;20027;-66
2023/11/15 07:31:43;;;;;;;9.32;7.13;;;;;;;;;;2107613;28;20100;-66
2023/11/15 07:33:03;;;;;;;8.75;6.60;;;;;;;;;;2105938;28;20029;-66
2023/11/15 07:34:22;;;;;;;9.55;6.57;;;;;;;;;;2108103;28;20039;-67
2023/11/15 07:35:41;;;;;;;10.85;6.65;;;;;;;;;;2108802;28;20032;-66
2023/11/15 07:37:00;;;;;;;10.00;6.95;;;;;;;;;;2107305;28;20024;-66
2023/11/15 07:38:19;;;;;;;9.23;6.25;;;;;;;;;;2107638;28;20135;-66
2023/11/15 07:39:38;;;;;;;18.17;7.68;;;;;;;;;;2107837;28;20032;-67
2023/11/15 07:40:57;;;;;;;10.88;6.97;;;;;;;;;;2107789;28;20381;-66
2023/11/15 07:42:17;;;;;;;12.15;6.63;;;;;;;;;;2107988;28;20681;-66
2023/11/15 07:43:36;;;;;;;8.57;5.80;;;;;;;;;;2103905;28;20432;-66
2023/11/15 07:44:56;;;;;;;9.18;5.43;;;;;;;;;;2109067;28;20024;-66
2023/11/15 07:46:15;;;;;;;7.75;6.20;;;;;;;;;;2107768;28;20087;-67
2023/11/15 07:47:34;;;;;;;6.25;5.68;;;;;;;;;;2108730;28;20024;-66
2023/11/15 07:48:53;;;;;;;10.48;5.70;;;;;;;;;;2108321;28;20043;-66
2023/11/15 07:50:15;;;;;;;7.15;6.07;;;;;;;;;;2109155;28;20032;-67
2023/11/15 07:51:35;;;;;;;8.07;6.47;;;;;;;;;;2107325;28;20012;-65
2023/11/15 07:52:54;;;;;;;6.13;5.55;;;;;;;;;;2109169;28;20480;-66
2023/11/15 07:54:13;;;;;;;9.68;6.00;;;;;;;;;;2106383;28;20068;-66
2023/11/15 07:55:35;;;;;;;6.50;5.95;;;;;;;;;;2108217;28;20123;-66
2023/11/15 07:56:54;;;;;;;8.98;7.28;;;;;;;;;;2108513;28;20024;-66